createdAt,value
2018-05-09T00:02:24.174Z,76.82
2018-05-09T00:03:04.177Z,77.40
2018-05-09T00:04:25.676Z,77.97
2018-05-09T00:05:03.677Z,77.21
2018-05-09T00:06:03.679Z,77.21
2018-05-09T00:07:24.676Z,77.78
2018-05-09T00:08:06.173Z,77.50
2018-05-09T00:09:04.176Z,77.40
2018-05-09T00:10:04.180Z,77.30
2018-05-09T00:11:04.176Z,77.50
2018-05-09T00:12:04.748Z,77.30
2018-05-09T00:13:04.676Z,77.01
2018-05-09T00:14:04.676Z,76.73
2018-05-09T00:15:25.162Z,77.21
2018-05-09T00:16:05.176Z,77.30
2018-05-09T00:17:05.175Z,77.59
2018-05-09T00:18:05.181Z,77.74
2018-05-09T00:19:11.176Z,77.74
2018-05-09T00:20:05.675Z,77.40
2018-05-09T00:21:04.917Z,77.40
2018-05-09T00:22:05.675Z,76.64
2018-05-09T00:23:05.675Z,77.40
2018-05-09T00:24:06.179Z,77.40
2018-05-09T00:25:06.179Z,76.92
2018-05-09T00:26:06.177Z,77.30
2018-05-09T00:27:06.175Z,77.59
2018-05-09T00:28:08.675Z,77.36
2018-05-09T00:29:27.683Z,77.45
2018-05-09T00:30:07.607Z,77.94
2018-05-09T00:31:08.675Z,77.65
2018-05-09T00:32:06.304Z,77.36
2018-05-09T00:33:07.186Z,77.45
2018-05-09T00:34:07.178Z,77.08
2018-05-09T00:35:07.179Z,77.65
2018-05-09T00:36:07.628Z,77.36
2018-05-09T00:37:09.675Z,77.45
2018-05-09T00:38:07.677Z,77.36
2018-05-09T00:39:07.683Z,77.17
2018-05-09T00:40:07.674Z,77.94
2018-05-09T00:41:08.175Z,77.84
2018-05-09T00:42:22.182Z,77.74
2018-05-09T00:43:08.174Z,77.36
2018-05-09T00:44:08.218Z,78.22
2018-05-09T00:45:08.677Z,77.84
2018-05-09T00:46:08.674Z,78.31
2018-05-09T00:48:40.053Z,78.22
2018-05-09T00:49:40.091Z,78.60
2018-05-09T00:50:40.089Z,78.79
2018-05-09T00:51:39.686Z,79.08
2018-05-09T00:52:39.785Z,78.99
2018-05-09T00:53:41.563Z,78.60
2018-05-09T00:54:40.566Z,79.08
2018-05-09T00:55:42.012Z,79.08
2018-05-09T00:56:41.060Z,79.17
2018-05-09T00:57:40.282Z,79.08
2018-05-09T00:58:41.055Z,78.70
2018-05-09T00:59:40.555Z,78.79
2018-05-09T01:02:12.813Z,78.31
2018-05-09T01:03:13.744Z,78.79
2018-05-09T01:04:12.817Z,78.31
2018-05-09T01:06:43.858Z,78.60
2018-05-09T01:07:44.582Z,78.41
2018-05-09T01:08:44.589Z,79.08
2018-05-09T01:09:45.084Z,78.56
2018-05-09T01:11:05.299Z,78.75
2018-05-09T01:11:45.086Z,78.60
2018-05-09T01:12:45.091Z,78.99
2018-05-09T01:15:37.842Z,78.60
2018-05-09T01:16:16.860Z,78.56
2018-05-09T01:17:16.849Z,78.56
2018-05-09T01:18:17.349Z,78.47
2018-05-09T01:19:17.354Z,79.14
2018-05-09T01:20:17.349Z,79.43
2018-05-09T01:21:17.347Z,78.56
2018-05-09T01:22:18.847Z,78.47
2018-05-09T01:23:17.070Z,78.56
2018-05-09T01:24:17.852Z,78.47
2018-05-09T01:25:17.850Z,78.37
2018-05-09T01:26:41.345Z,79.04
2018-05-09T01:27:45.349Z,78.94
2018-05-09T01:28:18.348Z,78.75
2018-05-09T01:29:18.346Z,78.94
2018-05-09T01:31:50.097Z,79.33
2018-05-09T01:32:50.104Z,78.66
2018-05-09T01:33:50.604Z,77.99
2018-05-09T01:34:50.610Z,78.18
2018-05-09T01:35:50.604Z,77.89
2018-05-09T01:36:50.604Z,78.37
2018-05-09T01:37:51.108Z,78.56
2018-05-09T01:38:51.104Z,79.23
2018-05-09T01:39:51.103Z,79.61
2018-05-09T01:40:51.104Z,79.43
2018-05-09T01:41:50.701Z,78.94
2018-05-09T01:42:51.604Z,79.23
2018-05-09T01:43:51.612Z,79.04
2018-05-09T01:44:51.608Z,78.28
2018-05-09T01:45:58.104Z,78.56
2018-05-09T01:46:51.327Z,78.85
2018-05-09T01:47:52.058Z,78.75
2018-05-09T01:48:52.114Z,78.75
2018-05-09T01:49:52.104Z,78.47
2018-05-09T01:50:54.603Z,79.23
2018-05-09T01:51:52.606Z,79.14
2018-05-09T01:52:51.951Z,78.37
2018-05-09T01:53:52.604Z,78.85
2018-05-09T01:54:52.223Z,77.99
2018-05-09T01:55:53.103Z,78.28
2018-05-09T01:56:54.073Z,78.18
2018-05-09T01:57:53.103Z,78.09
2018-05-09T02:01:56.324Z,78.56
2018-05-09T02:02:56.330Z,78.47
2018-05-09T02:03:55.807Z,78.47
2018-05-09T02:04:56.832Z,78.56
2018-05-09T02:06:17.831Z,78.37
2018-05-09T02:06:56.847Z,78.94
2018-05-09T02:07:56.830Z,79.14
2018-05-09T02:09:18.334Z,78.47
2018-05-09T02:09:57.331Z,79.23
2018-05-09T02:11:18.333Z,79.23
2018-05-09T02:11:57.326Z,80.09
2018-05-09T02:13:18.837Z,79.90
2018-05-09T02:13:57.832Z,79.77
2018-05-09T02:15:19.763Z,80.09
2018-05-09T02:15:57.836Z,79.48
2018-05-09T02:16:58.331Z,79.90
2018-05-09T02:18:19.338Z,79.23
2018-05-09T02:19:12.360Z,79.96
2018-05-09T02:19:58.330Z,80.33
2018-05-09T02:20:57.928Z,79.77
2018-05-09T02:22:21.836Z,79.77
2018-05-09T02:22:58.837Z,79.28
2018-05-09T02:23:58.883Z,79.71
2018-05-09T02:24:59.332Z,79.33
2018-05-09T02:25:59.341Z,79.77
2018-05-09T02:27:21.831Z,79.96
2018-05-09T02:27:59.349Z,79.96
2018-05-09T02:29:00.808Z,79.96
2018-05-09T02:29:59.831Z,80.15
2018-05-09T02:30:59.834Z,79.86
2018-05-09T02:31:59.836Z,79.00
2018-05-09T02:33:21.336Z,79.77
2018-05-09T02:34:00.331Z,79.86
2018-05-09T02:35:00.331Z,80.15
2018-05-09T02:36:00.336Z,80.53
2018-05-09T02:37:06.827Z,79.86
2018-05-09T02:38:00.830Z,80.05
2018-05-09T02:39:06.839Z,80.62
2018-05-09T02:40:00.828Z,80.15
2018-05-09T02:41:22.332Z,80.53
2018-05-09T02:43:32.778Z,80.24
2018-05-09T02:44:32.714Z,80.53
2018-05-09T02:45:32.716Z,81.01
2018-05-09T02:46:33.216Z,80.53
2018-05-09T02:47:36.215Z,80.91
2018-05-09T02:48:33.225Z,80.91
2018-05-09T02:49:33.220Z,80.81
2018-05-09T02:50:54.716Z,79.57
2018-05-09T02:51:54.718Z,80.05
2018-05-09T02:52:40.714Z,79.77
2018-05-09T02:53:34.715Z,79.28
2018-05-09T02:54:33.329Z,79.38
2018-05-09T02:55:34.217Z,79.77
2018-05-09T02:56:34.215Z,79.57
2018-05-09T02:57:34.217Z,79.00
2018-05-09T02:58:55.761Z,79.38
2018-05-09T02:59:34.713Z,79.57
2018-05-09T03:00:39.702Z,80.15
2018-05-09T03:01:34.714Z,80.15
2018-05-09T03:02:55.716Z,80.24
2018-05-09T03:03:35.215Z,80.30
2018-05-09T03:04:56.215Z,80.33
2018-05-09T03:05:35.215Z,79.96
2018-05-09T03:06:35.215Z,79.57
2018-05-09T03:09:06.253Z,78.52
2018-05-09T03:10:06.972Z,79.44
2018-05-09T03:11:06.978Z,79.44
2018-05-09T03:12:07.471Z,80.11
2018-05-09T03:13:13.471Z,79.91
2018-05-09T03:14:07.508Z,80.05
2018-05-09T03:15:07.471Z,79.96
2018-05-09T03:16:29.904Z,80.30
2018-05-09T03:17:07.975Z,79.67
2018-05-09T03:18:07.968Z,79.91
2018-05-09T03:19:07.971Z,80.43
2018-05-09T03:20:08.470Z,80.49
2018-05-09T03:21:07.705Z,80.91
2018-05-09T03:22:08.475Z,80.87
2018-05-09T03:23:29.480Z,79.77
2018-05-09T03:24:08.970Z,79.38
2018-05-09T03:25:14.971Z,79.96
2018-05-09T03:26:09.028Z,79.44
2018-05-09T03:27:08.970Z,79.25
2018-05-09T03:28:08.974Z,78.96
2018-05-09T03:29:09.474Z,79.53
2018-05-09T03:31:40.138Z,79.91
2018-05-09T03:32:40.257Z,79.35
2018-05-09T03:33:40.857Z,79.72
2018-05-09T03:34:40.454Z,79.72
2018-05-09T03:35:41.357Z,80.30
2018-05-09T03:36:41.355Z,79.91
2018-05-09T03:37:41.361Z,80.58
2018-05-09T03:38:41.856Z,79.91
2018-05-09T03:39:41.080Z,80.11
2018-05-09T03:40:41.858Z,80.20
2018-05-09T03:41:41.328Z,80.11
2018-05-09T03:44:40.612Z,79.72
2018-05-09T03:45:14.611Z,79.91
2018-05-09T03:46:13.616Z,80.87
2018-05-09T03:48:45.366Z,81.92
2018-05-09T03:49:46.305Z,81.63
2018-05-09T03:50:44.840Z,81.82
2018-05-09T03:51:47.872Z,81.63
2018-05-09T03:52:51.873Z,81.35
2018-05-09T03:53:45.869Z,80.01
2018-05-09T03:54:45.876Z,80.11
2018-05-09T03:55:46.375Z,80.77
2018-05-09T03:56:46.374Z,80.68
2018-05-09T03:57:46.374Z,81.06
2018-05-09T03:58:46.379Z,81.35
2018-05-09T03:59:46.875Z,80.68
2018-05-09T04:02:07.872Z,79.63
2018-05-09T04:02:46.872Z,80.30
2018-05-09T04:04:08.375Z,81.25
2018-05-09T04:04:47.373Z,81.82
2018-05-09T04:05:47.373Z,81.63
2018-05-09T04:06:47.373Z,80.49
2018-05-09T04:07:48.881Z,80.49
2018-05-09T04:08:47.872Z,80.77
2018-05-09T04:09:47.873Z,80.87
2018-05-09T04:10:49.873Z,81.35
2018-05-09T04:13:35.587Z,81.25
2018-05-09T04:14:19.654Z,81.25
2018-05-09T04:16:51.405Z,80.77
2018-05-09T04:17:52.845Z,80.87
2018-05-09T04:18:51.411Z,80.68
2018-05-09T04:19:51.027Z,81.35
2018-05-09T04:20:51.924Z,81.38
2018-05-09T04:21:51.909Z,82.01
2018-05-09T04:22:51.913Z,81.15
2018-05-09T04:23:52.412Z,80.96
2018-05-09T04:24:52.504Z,81.73
2018-05-09T04:25:51.757Z,82.01
2018-05-09T04:26:52.423Z,81.54
2018-05-09T04:27:51.897Z,81.44
2018-05-09T04:30:26.109Z,81.77
2018-05-09T04:31:45.183Z,81.29
2018-05-09T04:32:25.174Z,80.53
2018-05-09T04:33:26.676Z,80.91
2018-05-09T04:34:45.677Z,80.81
2018-05-09T04:35:24.917Z,80.91
2018-05-09T04:36:46.673Z,81.01
2018-05-09T04:37:46.195Z,80.72
2018-05-09T04:38:27.176Z,81.38
2018-05-09T04:39:25.176Z,81.58
2018-05-09T04:40:26.114Z,81.77
2018-05-09T04:41:46.676Z,81.86
2018-05-09T04:42:46.676Z,81.48
2018-05-09T04:43:25.676Z,81.67
2018-05-09T04:44:27.151Z,81.29
2018-05-09T04:45:28.183Z,81.38
2018-05-09T04:46:26.181Z,81.29
2018-05-09T04:47:25.531Z,81.20
2018-05-09T04:48:26.176Z,81.29
2018-05-09T04:49:26.683Z,82.06
2018-05-09T04:50:27.106Z,81.77
2018-05-09T04:51:26.674Z,81.86
2018-05-09T04:52:26.674Z,81.77
2018-05-09T04:53:41.182Z,82.15
2018-05-09T04:54:27.173Z,82.15
2018-05-09T04:55:27.299Z,81.77
2018-05-09T04:56:27.176Z,81.86
2018-05-09T04:57:52.176Z,81.86
2018-05-09T04:58:26.900Z,81.77
2018-05-09T04:59:27.674Z,82.91
2018-05-09T05:00:27.675Z,83.06
2018-05-09T05:01:30.175Z,83.48
2018-05-09T05:02:29.604Z,83.01
2018-05-09T05:03:28.173Z,83.39
2018-05-09T05:04:28.210Z,83.29
2018-05-09T05:05:28.672Z,83.39
2018-05-09T05:08:21.422Z,83.20
2018-05-09T05:09:22.427Z,82.82
2018-05-09T05:10:01.426Z,82.48
2018-05-09T05:11:00.436Z,82.57
2018-05-09T05:12:21.928Z,82.67
2018-05-09T05:13:00.935Z,81.90
2018-05-09T05:15:34.111Z,82.09
2018-05-09T05:16:35.551Z,82.09
2018-05-09T05:17:34.118Z,81.90
2018-05-09T05:18:48.636Z,82.67
2018-05-09T05:19:34.618Z,83.24
2018-05-09T05:20:55.618Z,82.57
2018-05-09T05:21:34.618Z,83.24
2018-05-09T05:22:57.051Z,82.57
2018-05-09T05:23:35.133Z,82.38
2018-05-09T05:24:36.079Z,82.38
2018-05-09T05:25:36.593Z,82.38
2018-05-09T05:26:49.611Z,82.52
2018-05-09T05:27:35.618Z,82.71
2018-05-09T05:28:35.618Z,82.52
2018-05-09T05:29:35.618Z,82.71
2018-05-09T05:30:36.120Z,82.42
2018-05-09T05:31:36.122Z,82.81
2018-05-09T05:32:35.490Z,82.42
2018-05-09T05:33:36.121Z,82.52
2018-05-09T05:34:58.585Z,82.04
2018-05-09T05:35:36.626Z,81.85
2018-05-09T05:36:36.618Z,82.23
2018-05-09T05:37:57.618Z,82.04
2018-05-09T05:38:45.582Z,82.71
2018-05-09T05:39:58.124Z,81.70
2018-05-09T05:40:37.114Z,81.89
2018-05-09T05:41:58.113Z,81.99
2018-05-09T05:42:51.628Z,81.60
2018-05-09T05:43:37.618Z,80.74
2018-05-09T05:44:37.617Z,81.03
2018-05-09T05:45:37.624Z,81.03
2018-05-09T05:48:10.378Z,81.13
2018-05-09T05:49:15.429Z,81.22
2018-05-09T05:50:30.422Z,80.74
2018-05-09T05:51:09.423Z,80.88
2018-05-09T05:52:09.923Z,80.98
2018-05-09T05:54:40.568Z,81.07
2018-05-09T05:55:41.321Z,80.50
2018-05-09T05:57:02.321Z,80.50
2018-05-09T05:59:14.556Z,79.87
2018-05-09T06:02:05.934Z,79.20
2018-05-09T06:02:50.952Z,78.63
2018-05-09T06:03:45.884Z,78.24
2018-05-09T06:04:45.444Z,77.13
2018-05-09T06:05:45.445Z,76.27
2018-05-09T06:06:44.667Z,75.60
2018-05-09T06:07:51.443Z,75.98
2018-05-09T06:08:45.436Z,75.79
2018-05-09T06:09:45.937Z,75.70
2018-05-09T06:10:45.161Z,76.69
2018-05-09T06:11:45.946Z,76.60
2018-05-09T06:12:45.942Z,76.79
2018-05-09T06:13:46.437Z,76.79
2018-05-09T06:14:47.435Z,76.79
2018-05-09T06:15:46.439Z,76.98
2018-05-09T06:16:46.447Z,76.79
2018-05-09T06:19:18.201Z,76.89
2018-05-09T06:20:41.209Z,75.93
2018-05-09T06:21:17.692Z,76.02
2018-05-09T06:24:11.009Z,75.96
2018-05-09T06:24:56.038Z,75.87
2018-05-09T06:25:49.954Z,75.58
2018-05-09T06:27:12.461Z,75.20
2018-05-09T06:27:50.477Z,74.62
2018-05-09T06:29:11.462Z,73.95
2018-05-09T06:29:51.886Z,73.86
2018-05-09T06:31:04.976Z,73.57
2018-05-09T06:31:50.179Z,72.07
2018-05-09T06:34:29.882Z,72.64
2018-05-09T06:35:22.451Z,73.13
2018-05-09T06:36:22.451Z,74.08
2018-05-09T06:37:24.942Z,74.31
2018-05-09T06:38:28.943Z,74.08
2018-05-09T06:40:55.909Z,73.65
2018-05-09T06:41:54.456Z,73.83
2018-05-09T06:43:14.922Z,73.07
2018-05-09T06:45:47.179Z,72.33
2018-05-09T06:46:47.186Z,72.05
2018-05-09T06:47:25.672Z,71.66
2018-05-09T06:48:32.688Z,70.13
2018-05-09T06:49:26.686Z,70.13
2018-05-09T06:50:32.692Z,68.98
2018-05-09T06:51:30.119Z,68.82
2018-05-09T06:52:41.190Z,67.47
2018-05-09T06:53:27.189Z,66.90
2018-05-09T06:54:47.561Z,65.88
2018-05-09T06:55:48.192Z,65.01
2018-05-09T06:56:50.687Z,65.78
2018-05-09T06:57:31.618Z,63.67
2018-05-09T06:58:27.005Z,64.63
2018-05-09T06:59:27.687Z,64.72
2018-05-09T07:00:34.688Z,63.67
2018-05-09T07:01:42.215Z,62.52
2018-05-09T07:02:28.188Z,61.30
2018-05-09T07:03:28.187Z,61.11
2018-05-09T07:04:28.188Z,61.71
2018-05-09T07:06:59.946Z,60.37
2018-05-09T07:08:01.416Z,59.99
2018-05-09T07:08:59.631Z,59.12
2018-05-09T07:09:59.630Z,59.60
2018-05-09T07:11:02.442Z,58.89
2018-05-09T07:12:00.456Z,60.66
2018-05-09T07:13:00.446Z,60.56
2018-05-09T07:15:55.231Z,60.94
2018-05-09T07:18:27.682Z,59.79
2018-05-09T07:19:07.224Z,60.75
2018-05-09T07:20:06.682Z,62.48
2018-05-09T07:22:35.502Z,61.61
2018-05-09T07:23:34.854Z,60.37
2018-05-09T07:24:35.514Z,59.89
2018-05-09T07:25:36.018Z,59.22
2018-05-09T07:26:36.009Z,58.25
2018-05-09T07:27:35.361Z,58.47
2018-05-09T07:28:36.010Z,59.44
2018-05-09T07:29:36.510Z,61.26
2018-05-09T07:30:36.515Z,60.78
2018-05-09T07:31:36.542Z,59.17
2018-05-09T07:32:35.981Z,56.87
2018-05-09T07:34:00.940Z,57.15
2018-05-09T07:34:37.032Z,58.34
2018-05-09T07:35:58.010Z,57.57
2018-05-09T07:36:37.015Z,58.63
2018-05-09T07:37:36.484Z,57.76
2018-05-09T07:38:36.587Z,57.37
2018-05-09T07:39:36.699Z,56.82
2018-05-09T07:40:57.810Z,55.09
2018-05-09T07:41:36.914Z,56.25
2018-05-09T07:42:40.009Z,55.77
2018-05-09T07:43:37.112Z,54.71
2018-05-09T07:44:38.013Z,55.22
2018-05-09T07:45:39.008Z,55.22
2018-05-09T07:46:38.012Z,54.93
2018-05-09T07:47:38.652Z,52.81
2018-05-09T07:48:40.509Z,52.42
2018-05-09T07:49:38.511Z,52.13
2018-05-09T07:50:38.535Z,54.74
2018-05-09T07:51:39.011Z,53.29
2018-05-09T07:53:00.052Z,54.93
2018-05-09T07:53:39.009Z,54.09
2018-05-09T07:54:39.009Z,51.29
2018-05-09T07:55:39.523Z,52.93
2018-05-09T07:58:16.913Z,49.77
2018-05-09T07:59:10.272Z,52.19
2018-05-09T08:00:12.919Z,51.89
2018-05-09T08:01:17.421Z,52.09
2018-05-09T08:02:32.420Z,53.34
2018-05-09T08:03:13.427Z,53.27
2018-05-09T08:04:11.421Z,51.44
2018-05-09T08:06:43.196Z,52.50
2018-05-09T08:07:43.201Z,52.59
2018-05-09T08:08:43.195Z,49.99
2018-05-09T08:09:57.701Z,49.12
2018-05-09T08:10:57.714Z,51.34
2018-05-09T08:12:04.701Z,52.40
2018-05-09T08:12:58.276Z,49.82
2018-05-09T08:13:43.311Z,49.53
2018-05-09T08:14:46.201Z,50.11
2018-05-09T08:15:44.206Z,49.63
2018-05-09T08:16:43.684Z,49.15
2018-05-09T08:17:44.702Z,49.92
2018-05-09T08:18:44.703Z,49.44
2018-05-09T08:19:44.705Z,48.95
2018-05-09T08:20:44.704Z,49.24
2018-05-09T08:21:44.334Z,49.24
2018-05-09T08:22:45.203Z,49.15
2018-05-09T08:23:45.216Z,49.82
2018-05-09T08:24:46.174Z,49.24
2018-05-09T08:25:47.713Z,49.24
2018-05-09T08:26:44.930Z,47.41
2018-05-09T08:27:45.710Z,47.91
2018-05-09T08:28:45.705Z,48.69
2018-05-09T08:29:45.314Z,47.43
2018-05-09T08:30:45.436Z,47.72
2018-05-09T08:31:48.202Z,47.53
2018-05-09T08:32:46.202Z,48.11
2018-05-09T08:33:45.810Z,47.72
2018-05-09T08:34:46.714Z,47.55
2018-05-09T08:35:46.706Z,46.39
2018-05-09T08:36:46.807Z,44.26
2018-05-09T08:37:47.204Z,43.98
2018-05-09T08:38:47.204Z,44.94
2018-05-09T08:39:47.205Z,45.42
2018-05-09T08:40:46.689Z,46.68
2018-05-09T08:41:47.704Z,47.00
2018-05-09T08:42:46.951Z,46.42
2018-05-09T08:43:49.189Z,45.83
2018-05-09T08:44:47.155Z,42.83
2018-05-09T08:45:48.234Z,42.93
2018-05-09T08:46:47.353Z,41.39
2018-05-09T08:47:47.449Z,40.92
2018-05-09T08:48:48.204Z,39.86
2018-05-09T08:49:48.198Z,42.57
2018-05-09T08:50:59.135Z,41.50
2018-05-09T08:51:47.964Z,40.25
2018-05-09T08:52:48.704Z,40.15
2018-05-09T08:54:09.199Z,40.83
2018-05-09T08:54:53.141Z,41.41
2018-05-09T08:55:55.201Z,41.41
2018-05-09T08:56:49.215Z,41.60
2018-05-09T08:57:48.691Z,42.96
2018-05-09T08:58:49.708Z,39.95
2018-05-09T09:01:27.098Z,40.83
2018-05-09T09:02:35.103Z,41.21
2018-05-09T09:03:21.103Z,41.60
2018-05-09T09:04:23.687Z,41.41
2018-05-09T09:05:25.534Z,42.66
2018-05-09T09:09:24.293Z,42.88
2018-05-09T09:10:45.414Z,41.14
2018-05-09T09:11:25.041Z,42.78
2018-05-09T09:12:25.528Z,43.55
2018-05-09T09:13:25.523Z,41.72
2018-05-09T09:14:46.523Z,41.24
2018-05-09T09:15:25.555Z,40.75
2018-05-09T09:16:25.136Z,40.65
2018-05-09T09:17:25.233Z,41.24
2018-05-09T09:18:46.454Z,40.94
2018-05-09T09:19:25.430Z,41.64
2018-05-09T09:20:46.588Z,42.13
2018-05-09T09:21:26.527Z,41.35
2018-05-09T09:22:26.525Z,42.61
2018-05-09T09:23:26.532Z,40.96
2018-05-09T09:24:27.523Z,40.77
2018-05-09T09:25:27.492Z,41.16
2018-05-09T09:26:50.025Z,40.96
2018-05-09T09:27:26.996Z,39.70
2018-05-09T09:28:27.031Z,41.37
2018-05-09T09:29:33.524Z,42.72
2018-05-09T09:31:58.957Z,42.82
2018-05-09T09:32:58.965Z,39.92
2018-05-09T09:34:05.467Z,40.11
2018-05-09T09:36:30.151Z,38.85
2018-05-09T09:38:30.345Z,39.04
2018-05-09T09:39:33.840Z,39.62
2018-05-09T09:40:30.570Z,39.14
2018-05-09T09:41:53.887Z,40.21
2018-05-09T09:42:31.553Z,39.74
2018-05-09T09:43:52.371Z,39.55
2018-05-09T09:46:05.154Z,37.49
2018-05-09T09:47:04.615Z,37.38
2018-05-09T09:48:17.152Z,37.67
2018-05-09T09:49:02.757Z,38.15
2018-05-09T09:50:02.858Z,38.73
2018-05-09T09:51:03.652Z,39.12
2018-05-09T09:52:31.150Z,38.83
2018-05-09T09:53:03.257Z,39.12
2018-05-09T09:55:34.826Z,39.12
2018-05-09T09:56:34.926Z,38.13
2018-05-09T09:57:35.056Z,38.71
2018-05-09T09:58:38.062Z,39.39
2018-05-09T09:59:36.043Z,39.03
2018-05-09T10:00:42.983Z,38.25
2018-05-09T10:01:36.131Z,37.19
2018-05-09T10:02:35.686Z,37.98
2018-05-09T10:03:38.543Z,38.07
2018-05-09T10:04:56.883Z,37.98
2018-05-09T10:05:36.002Z,37.98
2018-05-09T10:06:43.053Z,37.11
2018-05-09T10:09:10.690Z,36.62
2018-05-09T10:10:10.250Z,36.82
2018-05-09T10:11:10.251Z,36.24
2018-05-09T10:13:42.531Z,36.80
2018-05-09T10:16:14.076Z,37.11
2018-05-09T10:17:14.074Z,38.27
2018-05-09T10:18:14.082Z,35.85
2018-05-09T10:19:14.565Z,36.74
2018-05-09T10:20:20.560Z,37.23
2018-05-09T10:21:41.565Z,36.36
2018-05-09T10:22:35.565Z,38.19
2018-05-09T10:23:21.136Z,37.05
2018-05-09T10:24:17.068Z,37.43
2018-05-09T10:25:29.093Z,38.50
2018-05-09T10:26:29.566Z,37.73
2018-05-09T10:27:35.657Z,37.82
2018-05-09T10:28:14.764Z,37.24
2018-05-09T10:29:14.889Z,37.24
2018-05-09T10:31:47.191Z,36.74
2018-05-09T10:32:46.557Z,36.64
2018-05-09T10:33:53.338Z,36.06
2018-05-09T10:35:01.708Z,37.13
2018-05-09T10:36:01.699Z,38.19
2018-05-09T10:36:47.700Z,37.81
2018-05-09T10:37:49.701Z,38.78
2018-05-09T10:39:15.197Z,38.89
2018-05-09T10:39:47.486Z,38.21
2018-05-09T10:40:50.200Z,37.23
2018-05-09T10:41:49.204Z,37.23
2018-05-09T10:47:46.914Z,35.51
2018-05-09T10:49:05.158Z,37.26
2018-05-09T10:49:45.007Z,36.87
2018-05-09T10:50:45.017Z,36.10
2018-05-09T10:52:05.518Z,37.16
2018-05-09T10:52:51.430Z,36.38
2018-05-09T10:53:44.796Z,36.97
2018-05-09T10:54:45.429Z,35.61
2018-05-09T10:56:06.937Z,35.51
2018-05-09T10:56:45.933Z,35.41
2018-05-09T10:57:45.277Z,35.71
2018-05-09T10:58:45.935Z,35.22
2018-05-09T10:59:52.429Z,35.51
2018-05-09T11:00:46.432Z,35.41
2018-05-09T11:01:46.435Z,34.44
2018-05-09T11:02:52.436Z,34.27
2018-05-09T11:08:34.551Z,35.43
2018-05-09T11:12:15.992Z,35.33
2018-05-09T11:14:48.472Z,35.53
2018-05-09T11:15:47.511Z,35.33
2018-05-09T11:17:15.015Z,37.47
2018-05-09T11:17:51.546Z,36.52
2018-05-09T11:18:48.013Z,34.58
2018-05-09T11:19:48.053Z,35.55
2018-05-09T11:20:50.518Z,34.75
2018-05-09T11:21:47.752Z,34.56
2018-05-09T11:22:48.510Z,34.87
2018-05-09T11:24:04.943Z,34.58
2018-05-09T11:24:55.942Z,35.64
2018-05-09T11:25:48.246Z,35.45
2018-05-09T11:26:51.015Z,34.67
2018-05-09T11:29:20.663Z,33.91
2018-05-09T11:34:55.130Z,32.08
2018-05-09T11:36:00.072Z,31.81
2018-05-09T11:36:55.140Z,31.43
2018-05-09T11:37:57.673Z,31.35
2018-05-09T11:38:55.646Z,32.42
2018-05-09T11:39:54.999Z,31.81
2018-05-09T11:40:58.144Z,33.53
2018-05-09T11:41:56.140Z,33.72
2018-05-09T11:44:33.540Z,32.21
2018-05-09T11:45:26.902Z,31.84
2018-05-09T11:46:33.547Z,30.77
2018-05-09T11:47:30.049Z,29.79
2018-05-09T11:48:34.047Z,30.31
2018-05-09T11:49:28.046Z,30.90
2018-05-09T11:50:27.533Z,29.82
2018-05-09T11:51:35.484Z,29.74
2018-05-09T11:52:28.550Z,28.16
2018-05-09T11:53:28.551Z,28.57
2018-05-09T11:54:49.552Z,27.98
2018-05-09T11:55:28.547Z,30.63
2018-05-09T11:56:29.048Z,28.58
2018-05-09T11:57:28.307Z,26.92
2018-05-09T11:58:28.417Z,27.22
2018-05-09T11:59:50.048Z,26.95
2018-05-09T12:00:38.480Z,30.96
2018-05-09T12:01:43.548Z,28.42
2018-05-09T12:02:29.550Z,29.08
2018-05-09T12:03:32.048Z,29.49
2018-05-09T12:04:29.171Z,28.01
2018-05-09T12:05:51.053Z,28.61
2018-05-09T12:06:51.049Z,26.86
2018-05-09T12:07:50.524Z,28.40
2018-05-09T12:08:51.555Z,27.61
2018-05-09T12:09:32.560Z,27.62
2018-05-09T12:10:51.681Z,26.95
2018-05-09T12:11:30.563Z,28.42
2018-05-09T12:17:42.407Z,25.05
2018-05-09T12:18:49.076Z,24.29
2018-05-09T12:20:06.577Z,24.01
2018-05-09T12:20:43.574Z,23.70
2018-05-09T12:21:43.589Z,24.79
2018-05-09T12:22:59.562Z,23.81
2018-05-09T12:23:46.072Z,24.69
2018-05-09T12:26:15.066Z,24.77
2018-05-09T12:27:16.009Z,24.69
2018-05-09T12:28:16.014Z,23.42
2018-05-09T12:29:16.008Z,24.41
2018-05-09T12:30:16.509Z,23.79
2018-05-09T12:31:36.607Z,24.46
2018-05-09T12:32:37.507Z,25.71
2018-05-09T12:33:16.509Z,27.91
2018-05-09T12:34:15.990Z,28.49
2018-05-09T12:35:16.131Z,29.56
2018-05-09T12:36:16.225Z,29.95
2018-05-09T12:37:18.483Z,29.56
2018-05-09T12:38:17.007Z,27.75
2018-05-09T12:39:19.508Z,27.48
2018-05-09T12:40:17.508Z,26.90
2018-05-09T12:41:17.507Z,25.44
2018-05-09T12:42:16.996Z,24.58
2018-05-09T12:43:18.014Z,22.53
2018-05-09T12:44:41.010Z,23.22
2018-05-09T12:45:18.006Z,23.91
2018-05-09T12:47:49.005Z,23.80
2018-05-09T12:48:49.811Z,23.43
2018-05-09T12:49:49.707Z,22.66
2018-05-09T12:50:52.215Z,22.86
2018-05-09T12:51:50.213Z,21.11
2018-05-09T12:52:52.206Z,21.42
2018-05-09T12:53:50.206Z,21.33
2018-05-09T12:55:17.708Z,21.53
2018-05-09T12:55:49.947Z,20.46
2018-05-09T12:56:50.707Z,21.45
2018-05-09T12:57:51.207Z,22.89
2018-05-09T12:58:51.206Z,22.81
2018-05-09T12:59:51.204Z,25.22
2018-05-09T13:01:05.212Z,28.09
2018-05-09T13:01:53.206Z,29.81
2018-05-09T13:02:51.706Z,30.26
2018-05-09T13:03:51.711Z,30.64
2018-05-09T13:04:53.735Z,31.27
2018-05-09T13:05:58.209Z,27.59
2018-05-09T13:06:52.208Z,28.19
2018-05-09T13:07:51.447Z,26.37
2018-05-09T13:10:25.198Z,25.02
2018-05-09T13:11:23.766Z,26.10
2018-05-09T13:12:23.769Z,27.93
2018-05-09T13:13:26.266Z,26.76
2018-05-09T13:14:38.271Z,27.84
2018-05-09T13:16:55.805Z,26.71
2018-05-09T13:17:55.815Z,25.04
2018-05-09T13:18:55.813Z,26.95
2018-05-09T13:19:58.312Z,27.41
2018-05-09T13:20:56.312Z,29.52
2018-05-09T13:22:17.317Z,30.87
2018-05-09T13:22:57.244Z,32.21
2018-05-09T13:23:55.923Z,32.68
2018-05-09T13:24:56.821Z,33.53
2018-05-09T13:26:17.810Z,33.53
2018-05-09T13:26:56.812Z,32.50
2018-05-09T13:27:56.425Z,31.17
2018-05-09T13:28:57.313Z,31.43
2018-05-09T13:29:57.320Z,32.59
2018-05-09T13:31:17.819Z,32.52
2018-05-09T13:31:57.812Z,31.35
2018-05-09T13:32:59.821Z,31.04
2018-05-09T13:33:57.812Z,30.44
2018-05-09T13:34:57.298Z,31.13
2018-05-09T13:35:58.312Z,31.46
2018-05-09T13:36:57.547Z,30.42
2018-05-09T13:37:58.315Z,30.93
2018-05-09T13:39:00.745Z,29.30
2018-05-09T13:40:19.897Z,28.22
2018-05-09T13:41:00.818Z,28.23
2018-05-09T13:42:19.816Z,27.27
2018-05-09T13:42:58.812Z,28.16
2018-05-09T13:45:29.930Z,26.64
2018-05-09T13:46:32.533Z,26.62
2018-05-09T13:47:52.114Z,25.78
2018-05-09T13:48:32.568Z,25.01
2018-05-09T13:49:37.101Z,24.62
2018-05-09T13:50:30.589Z,24.48
2018-05-09T13:51:45.642Z,26.42
2018-05-09T13:52:37.602Z,26.53
2018-05-09T13:53:53.621Z,26.62
2018-05-09T13:56:05.253Z,24.88
2018-05-09T13:57:05.268Z,24.60
2018-05-09T13:58:30.266Z,24.81
2018-05-09T13:59:03.759Z,25.01
2018-05-09T14:00:24.763Z,24.81
2018-05-09T14:01:24.105Z,24.31
2018-05-09T14:02:24.803Z,24.96
2018-05-09T14:03:25.267Z,25.18
2018-05-09T14:05:35.570Z,24.41
2018-05-09T14:06:35.580Z,23.74
2018-05-09T14:07:35.578Z,23.85
2018-05-09T14:08:36.076Z,23.77
2018-05-09T14:09:35.338Z,23.96
2018-05-09T14:10:36.081Z,23.85
2018-05-09T14:11:36.079Z,23.49
2018-05-09T14:12:35.690Z,22.89
2018-05-09T14:13:35.798Z,23.19
2018-05-09T14:14:36.573Z,22.98
2018-05-09T14:15:36.177Z,23.82
2018-05-09T14:16:58.104Z,25.35
2018-05-09T14:17:37.504Z,27.86
2018-05-09T14:18:58.082Z,28.61
2018-05-09T14:19:37.072Z,28.50
2018-05-09T14:20:58.575Z,30.71
2018-05-09T14:21:37.585Z,31.48
2018-05-09T14:22:52.575Z,31.54
2018-05-09T14:23:37.571Z,32.23
2018-05-09T14:24:38.072Z,32.68
2018-05-09T14:25:38.076Z,32.49
2018-05-09T14:26:38.072Z,32.49
2018-05-09T14:27:39.525Z,32.35
2018-05-09T14:28:44.586Z,30.55
2018-05-09T14:29:38.572Z,28.43
2018-05-09T14:30:38.572Z,27.66
2018-05-09T14:31:59.569Z,27.78
2018-05-09T14:32:45.075Z,26.81
2018-05-09T14:33:42.004Z,27.77
2018-05-09T14:34:39.073Z,27.10
2018-05-09T14:35:39.071Z,27.11
2018-05-09T14:38:10.174Z,30.12
2018-05-09T14:39:13.815Z,27.67
2018-05-09T14:40:14.315Z,27.77
2018-05-09T14:41:11.382Z,28.52
2018-05-09T14:42:11.390Z,28.91